createdAt,value
2022-10-26T00:00:58.925Z,5.5
2022-10-26T00:02:15.205Z,5.4
2022-10-26T00:03:30.536Z,5.7
2022-10-26T00:04:46.811Z,6
2022-10-26T00:06:03.105Z,5.4
2022-10-26T00:07:19.411Z,5.4
2022-10-26T00:08:35.700Z,5.7
2022-10-26T00:09:51.992Z,5.2
2022-10-26T00:11:08.292Z,5.8
2022-10-26T00:12:24.576Z,5.4
2022-10-26T00:13:40.877Z,5.3
2022-10-26T00:14:57.182Z,5.2
2022-10-26T00:16:13.458Z,5.4
2022-10-26T00:17:29.759Z,5.6
2022-10-26T00:18:46.059Z,5.1
2022-10-26T00:20:01.366Z,5.3
2022-10-26T00:21:17.656Z,5.7
2022-10-26T00:22:33.958Z,5.8
2022-10-26T00:23:50.250Z,5.3
2022-10-26T00:25:06.542Z,5.6
2022-10-26T00:26:22.826Z,5.1
2022-10-26T00:27:39.125Z,5.4
2022-10-26T00:28:55.419Z,5.5
2022-10-26T00:30:11.722Z,5.6
2022-10-26T00:31:28.007Z,5.5
2022-10-26T00:32:44.326Z,5.6
2022-10-26T00:34:00.596Z,5.4
2022-10-26T00:35:16.902Z,5.6
2022-10-26T00:36:32.204Z,5.7
2022-10-26T00:37:48.489Z,5.6
2022-10-26T00:39:04.785Z,5.8
2022-10-26T00:40:21.087Z,5.4
2022-10-26T00:41:37.374Z,5.7
2022-10-26T00:42:53.664Z,6.2
2022-10-26T00:44:09.961Z,5.7
2022-10-26T00:45:26.268Z,5.8
2022-10-26T00:46:42.547Z,6.3
2022-10-26T00:47:58.843Z,5.9
2022-10-26T00:49:15.134Z,6.1
2022-10-26T00:50:31.427Z,5.9
2022-10-26T00:51:47.724Z,5.6
2022-10-26T00:53:03.030Z,5.5
2022-10-26T00:54:19.347Z,6.2
2022-10-26T00:55:35.620Z,5.4
2022-10-26T00:56:51.928Z,5.2
2022-10-26T00:58:08.209Z,5.5
2022-10-26T00:59:24.503Z,5.6
2022-10-26T01:00:40.807Z,5.7
2022-10-26T01:01:57.104Z,5.1
2022-10-26T01:03:13.398Z,5.5
2022-10-26T01:04:29.693Z,5.2
2022-10-26T01:05:45.981Z,5.5
2022-10-26T01:07:02.278Z,5
2022-10-26T01:08:18.000Z,5.6
2022-10-26T01:09:33.879Z,4.7
2022-10-26T01:10:50.165Z,5.1
2022-10-26T01:12:06.475Z,4.8
2022-10-26T01:13:22.775Z,4.7
2022-10-26T01:14:39.046Z,4.8
2022-10-26T01:15:55.339Z,4.9
2022-10-26T01:17:11.641Z,5.4
2022-10-26T01:18:27.936Z,4.6
2022-10-26T01:19:44.224Z,5.2
2022-10-26T01:21:00.516Z,4.9
2022-10-26T01:22:16.818Z,4.6
2022-10-26T01:23:33.102Z,4.6
2022-10-26T01:24:49.403Z,4
2022-10-26T01:26:04.725Z,4.6
2022-10-26T01:27:21.020Z,4.5
2022-10-26T01:28:37.304Z,4.1
2022-10-26T01:29:53.606Z,4
2022-10-26T01:31:09.895Z,3.8
2022-10-26T01:32:26.192Z,4.1
2022-10-26T01:33:42.490Z,3.9
2022-10-26T01:34:58.780Z,3.8
2022-10-26T01:36:15.067Z,4.1
2022-10-26T01:37:31.357Z,4
2022-10-26T01:38:47.656Z,4.1
2022-10-26T01:40:03.954Z,3.7
2022-10-26T01:41:20.247Z,3.1
2022-10-26T01:42:35.551Z,4.2
2022-10-26T01:43:51.849Z,3.5
2022-10-26T01:45:08.134Z,3.8
2022-10-26T01:46:24.426Z,3.9
2022-10-26T01:47:40.731Z,3.7
2022-10-26T01:48:57.030Z,3.9
2022-10-26T01:50:13.315Z,4
2022-10-26T01:51:29.605Z,4
2022-10-26T01:52:45.904Z,3.8
2022-10-26T01:54:02.195Z,4.3
2022-10-26T01:55:18.491Z,4.1
2022-10-26T01:56:34.796Z,4.4
2022-10-26T01:57:51.088Z,4.1
2022-10-26T01:59:06.398Z,3.7
2022-10-26T02:00:22.685Z,4.1
2022-10-26T02:01:38.989Z,4.3
2022-10-26T02:02:55.281Z,4.1
2022-10-26T02:04:11.577Z,4
2022-10-26T02:05:27.863Z,3.9
2022-10-26T02:06:44.149Z,3.7
2022-10-26T02:08:00.443Z,3.8
2022-10-26T02:09:16.748Z,3.5
2022-10-26T02:10:33.041Z,3.6
2022-10-26T02:11:49.352Z,3.9
2022-10-26T02:13:05.631Z,3.6
2022-10-26T02:14:21.915Z,3.5
2022-10-26T02:15:37.227Z,3.6
2022-10-26T02:16:53.533Z,3.6
2022-10-26T02:18:09.810Z,3.9
2022-10-26T02:19:26.104Z,3.9
2022-10-26T02:20:42.419Z,4.7
2022-10-26T02:21:58.701Z,4.8
2022-10-26T02:23:15.003Z,4.2
2022-10-26T02:24:31.278Z,4.3
2022-10-26T02:25:47.585Z,4.7
2022-10-26T02:27:03.870Z,5.2
2022-10-26T02:28:20.159Z,4.9
2022-10-26T02:29:36.457Z,5
2022-10-26T02:30:52.764Z,4.4
2022-10-26T02:32:08.074Z,4.4
2022-10-26T02:33:24.359Z,4.6
2022-10-26T02:34:40.655Z,5.2
2022-10-26T02:35:56.949Z,5.1
2022-10-26T02:37:13.243Z,5.2
2022-10-26T02:38:29.534Z,4.8
2022-10-26T02:39:45.830Z,5.2
2022-10-26T02:41:02.128Z,5.3
2022-10-26T02:42:18.416Z,5.5
2022-10-26T02:43:34.715Z,5.4
2022-10-26T02:44:51.010Z,5.7
2022-10-26T02:46:07.294Z,5.1
2022-10-26T02:47:23.597Z,5.2
2022-10-26T02:48:38.906Z,5.2
2022-10-26T02:49:55.196Z,5.8
2022-10-26T02:51:11.493Z,5.6
2022-10-26T02:52:27.790Z,5.2
2022-10-26T02:53:44.078Z,5
2022-10-26T02:55:00.372Z,5.2
2022-10-26T02:56:16.672Z,5.4
2022-10-26T02:57:32.960Z,4.7
2022-10-26T02:58:49.262Z,5.2
2022-10-26T03:00:05.544Z,5.7
2022-10-26T03:01:21.851Z,5.5
2022-10-26T03:02:38.133Z,5.2
2022-10-26T03:03:54.430Z,5.7
2022-10-26T03:05:09.750Z,5.6
2022-10-26T03:06:26.040Z,5.3
2022-10-26T03:07:42.328Z,5
2022-10-26T03:08:58.641Z,4.9
2022-10-26T03:10:14.926Z,5.4
2022-10-26T03:11:31.213Z,5.2
2022-10-26T03:12:46.524Z,4.9
2022-10-26T03:14:02.824Z,5.1
2022-10-26T03:15:19.136Z,5.7
2022-10-26T03:16:35.422Z,5
2022-10-26T03:17:51.717Z,5.3
2022-10-26T03:19:08.012Z,5
2022-10-26T03:20:24.302Z,4.9
2022-10-26T03:21:40.607Z,4.8
2022-10-26T03:22:56.881Z,4.8
2022-10-26T03:24:13.180Z,5.1
2022-10-26T03:25:29.482Z,5.3
2022-10-26T03:26:45.768Z,5
2022-10-26T03:28:02.065Z,4.6
2022-10-26T03:29:17.367Z,4.7
2022-10-26T03:30:33.664Z,4.4
2022-10-26T03:31:49.953Z,4.5
2022-10-26T03:33:06.257Z,4.4
2022-10-26T03:34:22.543Z,4.8
2022-10-26T03:35:38.834Z,4.5
2022-10-26T03:36:55.128Z,4.5
2022-10-26T03:38:11.423Z,4.6
2022-10-26T03:39:27.733Z,4.5
2022-10-26T03:40:44.014Z,4.4
2022-10-26T03:42:00.313Z,4.3
2022-10-26T03:43:16.599Z,4.1
2022-10-26T03:44:32.912Z,3.9
2022-10-26T03:45:48.210Z,4.5
2022-10-26T03:47:04.513Z,4.4
2022-10-26T03:48:20.796Z,4.5
2022-10-26T03:49:37.096Z,4.1
2022-10-26T03:50:53.394Z,4.3
2022-10-26T03:52:09.700Z,3.8
2022-10-26T03:53:25.969Z,4.4
2022-10-26T03:54:42.268Z,4.1
2022-10-26T03:55:58.565Z,4.2
2022-10-26T03:57:14.863Z,4.4
2022-10-26T03:58:31.152Z,3.7
2022-10-26T03:59:47.445Z,4.1
2022-10-26T04:01:03.751Z,4
2022-10-26T04:02:19.056Z,4
2022-10-26T04:03:35.340Z,4
2022-10-26T04:04:51.637Z,4.2
2022-10-26T04:06:07.927Z,4.3
2022-10-26T04:07:24.226Z,4
2022-10-26T04:08:40.517Z,4.1
2022-10-26T04:09:56.818Z,4.1
2022-10-26T04:11:13.110Z,4.1
2022-10-26T04:12:29.415Z,4.3
2022-10-26T04:13:45.692Z,4.2
2022-10-26T04:15:02.001Z,4
2022-10-26T04:16:18.278Z,4.3
2022-10-26T04:17:34.584Z,4
2022-10-26T04:18:49.889Z,4
2022-10-26T04:20:06.187Z,4.1
2022-10-26T04:21:22.479Z,3.5
2022-10-26T04:22:38.773Z,4.2
2022-10-26T04:23:55.068Z,4.1
2022-10-26T04:25:11.360Z,4.4
2022-10-26T04:26:27.659Z,4.5
2022-10-26T04:27:43.954Z,4.4
2022-10-26T04:29:00.232Z,4.2
2022-10-26T04:30:16.543Z,4.3
2022-10-26T04:31:32.820Z,4.4
2022-10-26T04:32:49.123Z,4.4
2022-10-26T04:34:05.418Z,4.1
2022-10-26T04:35:20.724Z,4.1
2022-10-26T04:36:37.014Z,4.5
2022-10-26T04:37:53.313Z,4.3
2022-10-26T04:39:09.604Z,3.9
2022-10-26T04:40:25.909Z,3.9
2022-10-26T04:41:42.189Z,4.3
2022-10-26T04:42:58.487Z,3.8
2022-10-26T04:44:14.788Z,3.8
2022-10-26T04:45:31.086Z,4
2022-10-26T04:46:47.370Z,4.1
2022-10-26T04:48:03.669Z,4.1
2022-10-26T04:49:19.971Z,4.2
2022-10-26T04:50:36.255Z,4.1
2022-10-26T04:51:51.565Z,4.1
2022-10-26T04:53:07.860Z,3.9
2022-10-26T04:54:24.158Z,4.3
2022-10-26T04:55:40.446Z,3.8
2022-10-26T04:56:56.746Z,3.8
2022-10-26T04:58:13.032Z,3.8
2022-10-26T04:59:29.334Z,3.8
2022-10-26T05:00:45.621Z,3.9
2022-10-26T05:02:01.922Z,4
2022-10-26T05:03:18.204Z,4.3
2022-10-26T05:05:50.811Z,4.8
2022-10-26T05:07:07.085Z,3.6
2022-10-26T05:08:22.405Z,4
2022-10-26T05:09:38.707Z,4.2
2022-10-26T05:10:54.995Z,4.1
2022-10-26T05:12:11.278Z,3.7
2022-10-26T05:13:27.590Z,4.2
2022-10-26T05:14:43.880Z,4.4
2022-10-26T05:16:00.180Z,4.3
2022-10-26T05:17:16.465Z,3.6
2022-10-26T05:18:32.762Z,4.1
2022-10-26T05:19:49.047Z,3.9
2022-10-26T05:21:05.285Z,3.8
2022-10-26T05:22:21.578Z,3.6
2022-10-26T05:23:37.881Z,3.8
2022-10-26T05:24:53.180Z,3.8
2022-10-26T05:26:09.443Z,4
2022-10-26T05:28:42.033Z,3.5
2022-10-26T05:29:58.315Z,3.5
2022-10-26T05:31:14.622Z,3.4
2022-10-26T05:32:30.922Z,3.6
2022-10-26T05:33:47.166Z,3.7
2022-10-26T05:35:03.404Z,3.3
2022-10-26T05:36:19.649Z,3.1
2022-10-26T05:37:35.893Z,3.6
2022-10-26T05:38:52.126Z,3.1
2022-10-26T05:40:08.365Z,3.2
2022-10-26T05:41:23.640Z,3.4
2022-10-26T05:42:39.856Z,3
2022-10-26T05:43:56.101Z,3.3
2022-10-26T05:45:12.335Z,3.4
2022-10-26T05:46:28.573Z,3.1
2022-10-26T05:47:44.814Z,3.4
2022-10-26T05:49:01.056Z,3.1
2022-10-26T05:50:17.302Z,3.1
2022-10-26T05:51:33.538Z,3.3
2022-10-26T05:52:49.784Z,3.2
2022-10-26T05:54:06.032Z,3.2
2022-10-26T05:55:22.267Z,3.3
2022-10-26T05:56:38.503Z,3.2
2022-10-26T05:57:53.749Z,3.1
2022-10-26T05:59:10.005Z,3.4
2022-10-26T06:00:26.237Z,3.1
2022-10-26T06:01:42.469Z,3.2
2022-10-26T06:02:58.723Z,3.6
2022-10-26T06:04:14.957Z,3.6
2022-10-26T06:05:31.192Z,3.6
2022-10-26T06:06:47.430Z,3.6
2022-10-26T06:08:03.671Z,3.5
2022-10-26T06:09:19.925Z,3.5
2022-10-26T06:10:36.160Z,3.6
2022-10-26T06:11:52.394Z,3.5
2022-10-26T06:13:08.644Z,3.9
2022-10-26T06:14:23.903Z,3.7
2022-10-26T06:15:40.137Z,3.6
2022-10-26T06:16:56.375Z,3.5
2022-10-26T06:18:12.624Z,3.6
2022-10-26T06:19:28.849Z,3.5
2022-10-26T06:20:45.101Z,3.7
2022-10-26T06:22:01.339Z,3.8
2022-10-26T06:23:17.567Z,3.4
2022-10-26T06:24:33.805Z,3.7
2022-10-26T06:25:50.065Z,3.7
2022-10-26T06:27:06.292Z,3.8
2022-10-26T06:28:22.539Z,3.6
2022-10-26T06:29:38.771Z,3.6
2022-10-26T06:30:54.031Z,3.8
2022-10-26T06:32:10.282Z,3.9
2022-10-26T06:33:26.509Z,4.1
2022-10-26T06:34:42.749Z,3.8
2022-10-26T06:35:58.993Z,3.7
2022-10-26T06:37:15.243Z,3.8
2022-10-26T06:38:31.472Z,4.3
2022-10-26T06:39:47.710Z,3.9
2022-10-26T06:41:03.961Z,3.7
2022-10-26T06:42:20.185Z,3.7
2022-10-26T06:43:36.438Z,4.1
2022-10-26T06:44:52.677Z,3.7
2022-10-26T06:46:08.913Z,3.7
2022-10-26T06:47:24.171Z,3.6
2022-10-26T06:48:40.405Z,3.5
2022-10-26T06:49:56.645Z,3.2
2022-10-26T06:51:12.884Z,3.5
2022-10-26T06:52:29.135Z,3.8
2022-10-26T06:53:45.365Z,4
2022-10-26T06:55:01.616Z,4
2022-10-26T06:56:17.858Z,3.7
2022-10-26T06:57:34.084Z,4
2022-10-26T06:58:50.323Z,3.6
2022-10-26T07:00:06.568Z,3.7
2022-10-26T07:01:22.820Z,4.5
2022-10-26T07:02:39.041Z,3.7
2022-10-26T07:03:54.313Z,3.7
2022-10-26T07:05:10.544Z,3.8
2022-10-26T07:06:26.786Z,3.9
2022-10-26T07:07:43.020Z,3.8
2022-10-26T07:08:59.266Z,3.5
2022-10-26T07:10:15.507Z,3.7
2022-10-26T07:11:31.749Z,3.4
2022-10-26T07:12:47.990Z,3.8
2022-10-26T07:14:04.225Z,3.3
2022-10-26T07:15:20.483Z,3
2022-10-26T07:16:36.698Z,3.4
2022-10-26T07:17:52.943Z,3.4
2022-10-26T07:19:09.183Z,3.4
2022-10-26T07:20:24.438Z,3
2022-10-26T07:21:40.687Z,3.1
2022-10-26T07:22:56.914Z,3.3
2022-10-26T07:24:13.156Z,3
2022-10-26T07:25:29.403Z,3.2
2022-10-26T07:26:45.647Z,3.1
2022-10-26T07:28:00.911Z,3.1
2022-10-26T07:29:17.145Z,3.1
2022-10-26T07:30:33.374Z,3.2
2022-10-26T07:31:49.630Z,3.2
2022-10-26T07:33:05.857Z,2.8
2022-10-26T07:34:22.115Z,3
2022-10-26T07:35:38.337Z,2.9
2022-10-26T07:36:54.591Z,2.9
2022-10-26T07:38:10.833Z,3.2
2022-10-26T07:39:27.058Z,2.8
2022-10-26T07:40:43.313Z,2.9
2022-10-26T07:41:59.549Z,2.6
2022-10-26T07:43:15.793Z,3.1
2022-10-26T07:44:31.033Z,3.1
2022-10-26T07:45:47.274Z,2.9
2022-10-26T07:47:03.522Z,2.7
2022-10-26T07:48:19.763Z,2.8
2022-10-26T07:49:35.999Z,3.1
2022-10-26T07:50:52.241Z,3.2
2022-10-26T07:52:08.490Z,2.9
2022-10-26T07:53:24.711Z,3
2022-10-26T07:54:40.963Z,3.1
2022-10-26T07:55:57.199Z,2.9
2022-10-26T07:57:13.430Z,2.6
2022-10-26T07:58:29.669Z,2.7
2022-10-26T07:59:45.912Z,2.3
2022-10-26T08:01:01.178Z,2.9
2022-10-26T08:02:17.423Z,2.8
2022-10-26T08:03:33.651Z,2.7
2022-10-26T08:04:49.887Z,2.6
2022-10-26T08:07:22.366Z,2.4
2022-10-26T08:08:38.624Z,2.4
2022-10-26T08:09:54.848Z,2.3
2022-10-26T08:11:11.097Z,2.3
2022-10-26T08:12:27.323Z,2.7
2022-10-26T08:13:43.567Z,2.6
2022-10-26T08:14:59.815Z,2.3
2022-10-26T08:16:16.058Z,2.4
2022-10-26T08:17:31.316Z,2.5
2022-10-26T08:18:47.538Z,2.2
2022-10-26T08:20:03.781Z,2.5
2022-10-26T08:21:20.033Z,2.5
2022-10-26T08:22:36.268Z,2.4
2022-10-26T08:23:52.497Z,2.3
2022-10-26T08:25:08.739Z,2.3
2022-10-26T08:26:24.985Z,2.7
2022-10-26T08:27:41.231Z,2
2022-10-26T08:28:57.454Z,2.5
2022-10-26T08:30:13.707Z,2.1
2022-10-26T08:31:29.943Z,2
2022-10-26T08:32:46.184Z,1.8
2022-10-26T08:34:01.433Z,2.2
2022-10-26T08:35:17.674Z,2.1
2022-10-26T08:36:33.909Z,1.9
2022-10-26T08:37:50.154Z,1.9
2022-10-26T08:39:06.392Z,2.1
2022-10-26T08:40:22.639Z,2.1
2022-10-26T08:41:38.873Z,2
2022-10-26T08:42:55.112Z,1.9
2022-10-26T08:44:11.346Z,2
2022-10-26T08:45:27.587Z,1.5
2022-10-26T08:46:43.836Z,1.7
2022-10-26T08:48:00.072Z,1.9
2022-10-26T08:49:16.319Z,1.7
2022-10-26T08:50:31.567Z,1.7
2022-10-26T08:51:47.822Z,1.7
2022-10-26T08:53:04.039Z,1.7
2022-10-26T08:54:20.275Z,1.3
2022-10-26T08:55:36.516Z,1.7
2022-10-26T08:56:52.752Z,1.5
2022-10-26T08:58:09.007Z,2
2022-10-26T08:59:25.247Z,1.7
2022-10-26T09:00:41.476Z,1.6
2022-10-26T09:01:57.724Z,1.7
2022-10-26T09:03:13.978Z,1.8
2022-10-26T09:04:30.200Z,1.8
2022-10-26T09:05:46.426Z,1.3
2022-10-26T09:07:01.691Z,1.9
2022-10-26T09:08:17.929Z,1.8
2022-10-26T09:09:34.179Z,1.6
2022-10-26T09:10:50.416Z,2
2022-10-26T09:12:06.647Z,2.1
2022-10-26T09:13:22.897Z,1.7
2022-10-26T09:14:39.123Z,1.8
2022-10-26T09:15:55.365Z,1.8
2022-10-26T09:17:11.600Z,1.5
2022-10-26T09:18:27.837Z,1.7
2022-10-26T09:19:44.072Z,2.1
2022-10-26T09:21:00.309Z,1.9
2022-10-26T09:22:16.571Z,1.8
2022-10-26T09:23:31.817Z,2
2022-10-26T09:26:04.281Z,1.6
2022-10-26T09:27:20.522Z,1.8
2022-10-26T09:28:36.766Z,1.8
2022-10-26T09:29:53.008Z,1.6
2022-10-26T09:31:09.250Z,2.2
2022-10-26T09:32:25.472Z,1.8
2022-10-26T09:33:41.723Z,1.6
2022-10-26T09:34:57.971Z,1.8
2022-10-26T09:36:14.206Z,1.8
2022-10-26T09:37:30.435Z,1.6
2022-10-26T09:38:46.686Z,2
2022-10-26T09:40:01.917Z,2
2022-10-26T09:41:18.162Z,1.8
2022-10-26T09:42:34.405Z,2
2022-10-26T09:43:50.633Z,1.8
2022-10-26T09:45:06.885Z,1.8
2022-10-26T09:46:23.125Z,1.9
2022-10-26T09:47:39.348Z,1.7
2022-10-26T09:48:55.585Z,1.7
2022-10-26T09:50:11.837Z,2.1
2022-10-26T09:51:28.074Z,1.9
2022-10-26T09:52:44.323Z,1.7
2022-10-26T09:54:00.540Z,1.9
2022-10-26T09:55:16.798Z,1.7
2022-10-26T09:56:32.036Z,2
2022-10-26T09:57:48.285Z,1.8
2022-10-26T09:59:04.516Z,1.8
2022-10-26T10:00:20.758Z,2
2022-10-26T10:01:37.001Z,1.9
2022-10-26T10:02:53.237Z,1.9
2022-10-26T10:04:09.471Z,1.9
2022-10-26T10:05:25.717Z,2
2022-10-26T10:06:41.948Z,1.7
2022-10-26T10:07:58.179Z,1.9
2022-10-26T10:09:14.418Z,1.8
2022-10-26T10:10:30.656Z,1.6
2022-10-26T10:11:46.910Z,2.6
2022-10-26T10:13:02.154Z,1.9
2022-10-26T10:14:18.401Z,1.7
2022-10-26T10:15:34.643Z,1.8
2022-10-26T10:16:50.864Z,2.4
2022-10-26T10:18:07.115Z,1.9
2022-10-26T10:19:23.356Z,2.1
2022-10-26T10:20:39.593Z,1.9
2022-10-26T10:21:55.836Z,1.7
2022-10-26T10:23:12.077Z,2
2022-10-26T10:24:28.293Z,1.9
2022-10-26T10:25:44.553Z,1.9
2022-10-26T10:27:00.776Z,2.4
2022-10-26T10:28:17.027Z,1.9
2022-10-26T10:29:32.268Z,1.9
2022-10-26T10:30:48.517Z,2.2
2022-10-26T10:32:04.755Z,2.4
2022-10-26T10:33:20.995Z,1.8
2022-10-26T10:34:37.225Z,2
2022-10-26T10:35:53.472Z,1.9
2022-10-26T10:37:09.711Z,2.1
2022-10-26T10:38:25.937Z,2.2
2022-10-26T10:39:42.195Z,1.8
2022-10-26T10:40:58.414Z,1.7
2022-10-26T10:42:14.652Z,1.7
2022-10-26T10:43:30.914Z,1.7
2022-10-26T10:44:47.141Z,2
2022-10-26T10:46:03.376Z,1.7
2022-10-26T10:47:18.635Z,1.8
2022-10-26T10:48:34.879Z,1.6
2022-10-26T10:49:51.118Z,1.8
2022-10-26T10:51:07.345Z,2
2022-10-26T10:52:23.601Z,1.6
2022-10-26T10:53:39.846Z,1.6
2022-10-26T10:54:56.062Z,1.7
2022-10-26T10:56:12.312Z,1.9
2022-10-26T10:57:28.557Z,1.8
2022-10-26T10:58:44.785Z,1.4
2022-10-26T11:00:01.016Z,1.5
2022-10-26T11:01:17.255Z,1.6
2022-10-26T11:02:33.492Z,1.6
2022-10-26T11:03:48.746Z,1.6
2022-10-26T11:05:04.990Z,1.4
2022-10-26T11:06:21.240Z,1.6
2022-10-26T11:07:37.472Z,1.7
2022-10-26T11:08:53.710Z,1.6
2022-10-26T11:10:09.956Z,1.8
2022-10-26T11:11:26.188Z,1.6
2022-10-26T11:12:42.427Z,1.7
2022-10-26T11:13:58.667Z,1.7
2022-10-26T11:15:14.912Z,1.7
2022-10-26T11:16:31.146Z,1.6
2022-10-26T11:17:47.384Z,1.8
2022-10-26T11:19:03.625Z,1.5
2022-10-26T11:20:18.873Z,1.7
2022-10-26T11:21:35.113Z,1.7
2022-10-26T11:22:51.356Z,1.6
2022-10-26T11:24:07.592Z,1.5
2022-10-26T11:25:23.829Z,1.7
2022-10-26T11:26:40.078Z,1.7
2022-10-26T11:27:56.319Z,1.6
2022-10-26T11:29:12.552Z,2
2022-10-26T11:30:28.790Z,1.8
2022-10-26T11:31:45.029Z,1.8
2022-10-26T11:33:01.280Z,1.6
2022-10-26T11:34:17.516Z,1.9
2022-10-26T11:35:33.749Z,1.5
2022-10-26T11:36:49.001Z,1.6
2022-10-26T11:38:05.234Z,1.6
2022-10-26T11:39:21.489Z,1.9
2022-10-26T11:40:37.720Z,1.2
2022-10-26T11:41:53.957Z,1.5
2022-10-26T11:43:09.220Z,1.3
2022-10-26T11:44:25.458Z,1.3
2022-10-26T11:45:41.697Z,1.4
2022-10-26T11:46:57.951Z,1.3
2022-10-26T11:48:14.178Z,1.1
2022-10-26T11:49:30.415Z,1.3
2022-10-26T11:50:46.663Z,1.4
2022-10-26T11:52:02.901Z,1.4
2022-10-26T11:53:19.143Z,1.4
2022-10-26T11:54:35.367Z,1.2
2022-10-26T11:55:51.614Z,1.3
2022-10-26T11:57:07.858Z,1.2
2022-10-26T11:58:24.083Z,1.1
2022-10-26T11:59:39.346Z,1.2
2022-10-26T12:00:55.582Z,1.4
2022-10-26T12:02:11.825Z,1.3
2022-10-26T12:03:28.058Z,1.2
2022-10-26T12:04:44.299Z,1
2022-10-26T12:06:00.547Z,1.8
2022-10-26T12:07:16.771Z,1.4
2022-10-26T12:08:33.011Z,1.4
2022-10-26T12:09:49.255Z,1.3
2022-10-26T12:11:05.504Z,1.4
2022-10-26T12:12:21.742Z,1.3
2022-10-26T12:13:37.970Z,1.4
2022-10-26T12:14:54.209Z,1.1
2022-10-26T12:16:09.461Z,1.4
2022-10-26T12:17:25.708Z,1.1
2022-10-26T12:18:41.944Z,1.3
2022-10-26T12:19:58.187Z,1.3
2022-10-26T12:21:14.432Z,1.4
2022-10-26T12:22:30.656Z,1.1
2022-10-26T12:23:46.904Z,1.1
2022-10-26T12:25:03.138Z,1.4
2022-10-26T12:26:19.372Z,1.6
2022-10-26T12:27:35.610Z,1.3
2022-10-26T12:28:51.857Z,1.6
2022-10-26T12:30:08.089Z,1.3
2022-10-26T12:31:24.343Z,1
2022-10-26T12:32:39.592Z,1.4
2022-10-26T12:33:55.834Z,1.2
2022-10-26T12:35:12.064Z,1.3
2022-10-26T12:36:28.309Z,1.1
2022-10-26T12:37:44.543Z,1.1
2022-10-26T12:39:00.777Z,1.4
2022-10-26T12:40:17.026Z,1.2
2022-10-26T12:41:33.260Z,1.2
2022-10-26T12:42:49.500Z,1.2
2022-10-26T12:44:05.738Z,1.7
2022-10-26T12:45:21.977Z,1.2
2022-10-26T12:46:38.210Z,1.1
2022-10-26T12:47:54.456Z,1.2
2022-10-26T12:49:09.704Z,1.6
2022-10-26T12:50:25.947Z,1
2022-10-26T12:51:42.185Z,1.2
2022-10-26T12:52:58.420Z,1.2
2022-10-26T12:54:14.668Z,1.1
2022-10-26T12:55:30.908Z,1.1
2022-10-26T12:56:47.148Z,1.2
2022-10-26T12:58:03.378Z,1.1
2022-10-26T12:59:19.626Z,1
2022-10-26T13:00:35.855Z,1
2022-10-26T13:01:52.104Z,0.8
2022-10-26T13:03:08.342Z,0.9
2022-10-26T13:04:24.577Z,1.3
2022-10-26T13:05:39.829Z,1.1
2022-10-26T13:06:56.079Z,1
2022-10-26T13:08:12.312Z,1.5
2022-10-26T13:09:28.560Z,1.2
2022-10-26T13:10:44.785Z,1.2
2022-10-26T13:13:17.281Z,1.3
2022-10-26T13:14:33.506Z,1.2
2022-10-26T13:15:49.751Z,1
2022-10-26T13:17:05.990Z,1.4
2022-10-26T13:18:22.220Z,1.3
2022-10-26T13:19:38.467Z,1
2022-10-26T13:20:54.708Z,1.2
2022-10-26T13:22:09.969Z,1.2
2022-10-26T13:23:26.195Z,1.3
2022-10-26T13:24:42.434Z,1.1
2022-10-26T13:25:58.688Z,1.3
2022-10-26T13:27:14.922Z,1.1
2022-10-26T13:28:31.161Z,1.2
2022-10-26T13:29:47.406Z,1.1
2022-10-26T13:31:03.645Z,1.1
2022-10-26T13:32:19.874Z,1
2022-10-26T13:33:36.121Z,1.3
2022-10-26T13:34:52.355Z,1.8
2022-10-26T13:36:08.594Z,1.2
2022-10-26T13:37:24.850Z,1.5
2022-10-26T13:38:40.093Z,1.6
2022-10-26T13:39:56.340Z,1.2
2022-10-26T13:41:12.580Z,1.3
2022-10-26T13:42:28.820Z,1.7
2022-10-26T13:43:45.000Z,1.3
2022-10-26T13:45:01.304Z,1.4
2022-10-26T13:46:17.535Z,1.3
2022-10-26T13:47:33.776Z,1.3
2022-10-26T13:48:50.021Z,1.3
2022-10-26T13:50:06.268Z,1.3
2022-10-26T13:51:22.490Z,1.2
2022-10-26T13:52:38.750Z,1.4
2022-10-26T13:53:54.978Z,1.3
2022-10-26T13:55:10.240Z,1.5
2022-10-26T13:56:26.466Z,1.2
2022-10-26T13:57:42.726Z,1.6
2022-10-26T13:58:58.948Z,1.5
2022-10-26T14:00:15.192Z,1.8
2022-10-26T14:01:31.441Z,1.7
2022-10-26T14:02:47.677Z,1.7
2022-10-26T14:04:03.909Z,1.5
2022-10-26T14:05:20.147Z,1.5
2022-10-26T14:06:36.385Z,1.8
2022-10-26T14:07:52.631Z,1.5
2022-10-26T14:09:08.883Z,1.4
2022-10-26T14:10:25.114Z,1.4
2022-10-26T14:11:40.373Z,1.3
2022-10-26T14:12:56.600Z,1.4
2022-10-26T14:14:12.844Z,1.4
2022-10-26T14:15:29.085Z,1.5
2022-10-26T14:16:45.323Z,1.3
2022-10-26T14:18:01.565Z,1.4
2022-10-26T14:19:17.796Z,1.2
2022-10-26T14:20:34.034Z,1.5
2022-10-26T14:21:50.279Z,1.4
2022-10-26T14:23:06.528Z,1.6
2022-10-26T14:24:22.756Z,1.4
2022-10-26T14:25:38.995Z,1.6
2022-10-26T14:26:55.236Z,1.6
2022-10-26T14:28:10.498Z,1.4
2022-10-26T14:29:26.733Z,1.6
2022-10-26T14:30:42.962Z,1.6
2022-10-26T14:31:59.212Z,1.5
2022-10-26T14:33:15.451Z,1.5
2022-10-26T14:34:31.693Z,1.4
2022-10-26T14:35:47.920Z,1.6
2022-10-26T14:37:04.162Z,1.5
2022-10-26T14:38:20.415Z,1.5
2022-10-26T14:39:36.642Z,1.4
2022-10-26T14:40:52.891Z,1.5
2022-10-26T14:42:09.113Z,1.5
2022-10-26T14:43:25.369Z,1.5
2022-10-26T14:44:40.619Z,1.5
2022-10-26T14:45:56.855Z,1.6
2022-10-26T14:47:13.088Z,1.7
2022-10-26T14:48:29.328Z,1.6
2022-10-26T14:49:45.563Z,1.5
2022-10-26T14:51:01.808Z,2.1
2022-10-26T14:52:18.054Z,1.6
2022-10-26T14:53:34.285Z,1.5
2022-10-26T14:54:50.520Z,1.6
2022-10-26T14:56:06.769Z,2.3
2022-10-26T14:57:23.010Z,1.5
2022-10-26T14:58:39.238Z,1.8
2022-10-26T14:59:55.477Z,1.6
2022-10-26T15:01:10.731Z,1.6
2022-10-26T15:02:26.970Z,1.5
2022-10-26T15:03:43.218Z,1.5
2022-10-26T15:04:59.443Z,2
2022-10-26T15:06:15.689Z,1.6
2022-10-26T15:07:31.931Z,1.6
2022-10-26T15:08:48.165Z,2
2022-10-26T15:10:04.399Z,1.9
2022-10-26T15:11:20.655Z,1.6
2022-10-26T15:12:36.888Z,1.9
2022-10-26T15:13:53.123Z,1.8
2022-10-26T15:15:09.362Z,1.7
2022-10-26T15:16:25.598Z,1.6
2022-10-26T15:17:40.850Z,1.7
2022-10-26T15:18:57.098Z,1.6
2022-10-26T15:20:13.336Z,1.5
2022-10-26T15:21:29.580Z,1.7
2022-10-26T15:22:45.819Z,1.9
2022-10-26T15:24:02.057Z,1.8
2022-10-26T15:25:18.290Z,2
2022-10-26T15:26:34.519Z,1.7
2022-10-26T15:27:50.761Z,1.8
2022-10-26T15:29:06.999Z,1.7
2022-10-26T15:30:23.240Z,1.6
2022-10-26T15:31:39.476Z,1.8
2022-10-26T15:32:55.718Z,1.7
2022-10-26T15:34:10.976Z,1.7
2022-10-26T15:35:27.212Z,2
2022-10-26T15:36:43.459Z,2.5
2022-10-26T15:37:59.684Z,2.5
2022-10-26T15:39:15.942Z,2.7
2022-10-26T15:40:32.163Z,2.3
2022-10-26T15:41:48.407Z,2
2022-10-26T15:43:04.642Z,1.9
2022-10-26T15:44:20.884Z,2.2
2022-10-26T15:45:37.125Z,2.2
2022-10-26T15:46:53.370Z,2.1
2022-10-26T15:48:09.601Z,2.3
2022-10-26T15:49:25.838Z,2
2022-10-26T15:50:41.097Z,1.9
2022-10-26T15:51:57.336Z,2
2022-10-26T15:53:13.573Z,2.1
2022-10-26T15:54:29.810Z,2.1
2022-10-26T15:55:46.045Z,2.4
2022-10-26T15:57:02.285Z,2.3
2022-10-26T15:58:17.560Z,2.8
2022-10-26T15:59:33.793Z,2
2022-10-26T16:00:50.025Z,2.2
2022-10-26T16:02:06.265Z,2
2022-10-26T16:03:22.503Z,2.7
2022-10-26T16:04:38.758Z,2.4
2022-10-26T16:05:54.982Z,3
2022-10-26T16:07:11.220Z,2.4
2022-10-26T16:08:27.461Z,2.3
2022-10-26T16:09:43.693Z,2.3
2022-10-26T16:10:59.939Z,2.6
2022-10-26T16:12:16.185Z,2.4
2022-10-26T16:13:32.423Z,2.3
2022-10-26T16:14:47.679Z,2.2
2022-10-26T16:16:03.906Z,2.3
2022-10-26T16:17:20.162Z,2.3
2022-10-26T16:18:36.403Z,2.3
2022-10-26T16:19:52.628Z,2.3
2022-10-26T16:21:08.863Z,2.3
2022-10-26T16:22:25.115Z,2.2
2022-10-26T16:23:41.394Z,2.2
2022-10-26T16:24:57.691Z,2.1
2022-10-26T16:26:13.983Z,2.2
2022-10-26T16:27:30.269Z,2.1
2022-10-26T16:28:46.559Z,2.3
2022-10-26T16:30:02.866Z,2.5
2022-10-26T16:31:18.181Z,2.1
2022-10-26T16:32:34.472Z,2.5
2022-10-26T16:33:50.746Z,2.1
2022-10-26T16:35:07.051Z,2.2
2022-10-26T16:36:23.348Z,2.3
2022-10-26T16:37:39.632Z,2.1
2022-10-26T16:38:55.931Z,2.4
2022-10-26T16:40:12.225Z,2.4
2022-10-26T16:41:28.506Z,2.4
2022-10-26T16:42:44.808Z,2.1
2022-10-26T16:44:01.092Z,2.1
2022-10-26T16:45:17.391Z,2.1
2022-10-26T16:46:33.686Z,2.5
2022-10-26T16:47:48.982Z,2.4
2022-10-26T16:49:05.283Z,2.7
2022-10-26T16:50:21.587Z,2.3
2022-10-26T16:51:37.880Z,2.2
2022-10-26T16:52:54.169Z,2.5
2022-10-26T16:54:10.455Z,2.7
2022-10-26T16:55:26.746Z,2.7
2022-10-26T16:56:43.044Z,2.2
2022-10-26T16:57:59.328Z,2.7
2022-10-26T16:59:15.636Z,3.1
2022-10-26T17:00:31.929Z,2.8
2022-10-26T17:01:48.203Z,2.5
2022-10-26T17:03:04.510Z,2.8
2022-10-26T17:04:19.819Z,2.8
2022-10-26T17:05:36.110Z,3
2022-10-26T17:06:52.400Z,2.6
2022-10-26T17:08:08.681Z,2.9
2022-10-26T17:09:24.983Z,3
2022-10-26T17:10:41.284Z,2.7
2022-10-26T17:11:57.561Z,2.9
2022-10-26T17:13:13.851Z,3.1
2022-10-26T17:14:30.143Z,2.9
2022-10-26T17:15:46.441Z,2.9
2022-10-26T17:17:02.746Z,3.2
2022-10-26T17:18:19.029Z,2.8
2022-10-26T17:19:35.323Z,3
2022-10-26T17:20:50.625Z,3.5
2022-10-26T17:22:06.930Z,2.7
2022-10-26T17:23:23.216Z,2.9
2022-10-26T17:24:39.511Z,4.8
2022-10-26T17:25:55.803Z,7.3
2022-10-26T17:27:12.087Z,7.6
2022-10-26T17:28:28.393Z,10.7
2022-10-26T17:29:44.689Z,21.9
2022-10-26T17:31:00.966Z,27.8
2022-10-26T17:32:17.274Z,15.3
2022-10-26T17:33:33.563Z,15.5
2022-10-26T17:34:49.861Z,17.5
2022-10-26T17:36:06.141Z,18.3
2022-10-26T17:37:21.451Z,15.6
2022-10-26T17:38:37.738Z,12.6
2022-10-26T17:39:54.040Z,7.8
2022-10-26T17:41:10.321Z,7.5